createdAt,value
2019-04-16T00:01:16.759Z,10.70
2019-04-16T00:03:48.232Z,10.70
2019-04-16T00:06:23.371Z,10.70
2019-04-16T00:08:57.246Z,10.60
2019-04-16T00:11:41.754Z,10.50
2019-04-16T00:14:13.298Z,10.50
2019-04-16T00:16:44.562Z,10.40
2019-04-16T00:19:14.468Z,10.40
2019-04-16T00:21:46.638Z,10.30
2019-04-16T00:24:19.191Z,10.40
2019-04-16T00:26:49.610Z,10.30
2019-04-16T00:29:19.328Z,10.30
2019-04-16T00:31:50.714Z,10.30
2019-04-16T00:34:20.561Z,10.20
2019-04-16T00:36:50.242Z,10.10
2019-04-16T00:39:24.531Z,10.20
2019-04-16T00:41:51.594Z,10.20
2019-04-16T00:44:21.269Z,10.20
2019-04-16T00:46:50.997Z,10.20
2019-04-16T00:49:20.691Z,10.20
2019-04-16T00:51:50.343Z,10.10
2019-04-16T00:54:20.170Z,10.00
2019-04-16T00:56:49.899Z,10.00
2019-04-16T00:59:21.364Z,10.00
2019-04-16T01:01:51.140Z,10.00
2019-04-16T01:04:21.031Z,10.00
2019-04-16T01:06:50.783Z,10.00
2019-04-16T01:09:20.504Z,9.90
2019-04-16T01:11:50.282Z,9.80
2019-04-16T01:14:19.948Z,9.80
2019-04-16T01:16:49.594Z,9.90
2019-04-16T01:19:19.359Z,9.80
2019-04-16T01:21:49.110Z,9.80
2019-04-16T01:24:20.309Z,9.70
2019-04-16T01:26:50.270Z,9.70
2019-04-16T01:29:20.086Z,9.70
2019-04-16T01:31:55.035Z,9.70
2019-04-16T01:34:24.507Z,9.60
2019-04-16T01:37:11.959Z,9.60
2019-04-16T01:39:47.759Z,9.50
2019-04-16T01:42:17.338Z,9.50
2019-04-16T01:44:47.054Z,9.40
2019-04-16T01:47:16.701Z,9.40
2019-04-16T01:49:46.406Z,9.30
2019-04-16T01:52:18.696Z,9.30
2019-04-16T01:54:47.479Z,9.20
2019-04-16T01:57:17.429Z,9.30
2019-04-16T01:59:47.122Z,9.20
2019-04-16T02:02:16.800Z,9.20
2019-04-16T02:04:48.505Z,9.20
2019-04-16T02:07:18.428Z,9.10
2019-04-16T02:09:48.196Z,9.10
2019-04-16T02:12:17.855Z,9.00
2019-04-16T02:14:50.345Z,9.00
2019-04-16T02:17:18.924Z,9.00
2019-04-16T02:19:48.634Z,8.90
2019-04-16T02:22:18.321Z,8.90
2019-04-16T02:24:48.663Z,8.90
2019-04-16T02:27:18.539Z,8.80
2019-04-16T02:29:48.350Z,8.80
2019-04-16T02:32:18.049Z,8.80
2019-04-16T02:34:47.704Z,8.80
2019-04-16T02:37:17.415Z,8.70
2019-04-16T02:39:49.148Z,8.70
2019-04-16T02:42:18.559Z,8.70
2019-04-16T02:44:50.111Z,8.70
2019-04-16T02:47:19.736Z,8.60
2019-04-16T02:49:49.409Z,8.60
2019-04-16T02:52:36.854Z,8.50
2019-04-16T02:55:17.204Z,8.50
2019-04-16T02:58:02.375Z,8.40
2019-04-16T03:00:38.505Z,8.40
2019-04-16T03:03:12.925Z,8.40
2019-04-16T03:05:44.473Z,8.30
2019-04-16T03:08:14.343Z,8.30
2019-04-16T03:10:44.629Z,8.30
2019-04-16T03:13:15.246Z,8.30
2019-04-16T03:15:56.960Z,8.20
2019-04-16T03:18:40.476Z,8.20
2019-04-16T03:21:10.312Z,8.20
2019-04-16T03:23:40.116Z,8.10
2019-04-16T03:26:10.033Z,8.10
2019-04-16T03:28:39.816Z,8.10
2019-04-16T03:31:18.363Z,8.10
2019-04-16T03:33:48.381Z,8.10
2019-04-16T03:36:12.696Z,8.10
2019-04-16T03:38:42.380Z,8.00
2019-04-16T03:41:12.037Z,8.10
2019-04-16T03:43:41.743Z,8.10
2019-04-16T03:46:13.000Z,8.00
2019-04-16T03:48:42.963Z,8.00
2019-04-16T03:51:12.802Z,7.90
2019-04-16T03:53:42.593Z,7.90
2019-04-16T03:56:12.220Z,7.90
2019-04-16T03:58:42.013Z,7.80
2019-04-16T04:01:14.227Z,7.90
2019-04-16T04:03:43.178Z,7.80
2019-04-16T04:06:12.904Z,7.80
2019-04-16T04:08:48.012Z,7.90
2019-04-16T04:11:14.397Z,7.90
2019-04-16T04:13:44.175Z,7.80
2019-04-16T04:16:13.889Z,7.80
2019-04-16T04:18:43.959Z,7.70
2019-04-16T04:21:14.129Z,7.70
2019-04-16T04:23:43.806Z,7.70
2019-04-16T04:26:13.539Z,7.70
2019-04-16T04:28:43.329Z,7.60
2019-04-16T04:31:13.096Z,7.70
2019-04-16T04:33:43.185Z,7.60
2019-04-16T04:36:12.950Z,7.50
2019-04-16T04:38:42.768Z,7.60
2019-04-16T04:41:12.458Z,7.60
2019-04-16T04:43:42.154Z,7.50
2019-04-16T04:46:14.789Z,7.50
2019-04-16T04:48:43.410Z,7.50
2019-04-16T04:51:13.124Z,7.50
2019-04-16T04:53:42.882Z,7.50
2019-04-16T04:56:12.673Z,7.40
2019-04-16T04:58:42.490Z,7.50
2019-04-16T05:01:13.872Z,7.40
2019-04-16T05:03:44.381Z,7.40
2019-04-16T05:06:26.744Z,7.50
2019-04-16T05:08:54.283Z,7.40
2019-04-16T05:11:24.163Z,7.40
2019-04-16T05:13:56.463Z,7.50
2019-04-16T05:16:25.318Z,7.60
2019-04-16T05:18:55.066Z,7.70
2019-04-16T05:21:24.758Z,7.70
2019-04-16T05:23:57.537Z,7.80
2019-04-16T05:26:25.960Z,7.80
2019-04-16T05:28:57.375Z,7.80
2019-04-16T05:31:27.513Z,7.80
2019-04-16T05:34:02.115Z,7.90
2019-04-16T05:36:28.712Z,8.10
2019-04-16T05:38:58.437Z,8.30
2019-04-16T05:41:28.128Z,8.40
2019-04-16T05:43:58.451Z,8.50
2019-04-16T05:46:29.635Z,8.90
2019-04-16T05:48:59.382Z,9.00
2019-04-16T05:51:31.459Z,9.10
2019-04-16T05:54:02.816Z,9.20
2019-04-16T05:56:37.023Z,9.20
2019-04-16T05:59:06.720Z,9.40
2019-04-16T06:01:38.023Z,9.40
2019-04-16T06:04:07.819Z,9.30
2019-04-16T06:06:37.520Z,9.40
2019-04-16T06:09:12.238Z,9.40
2019-04-16T06:11:41.368Z,9.50
2019-04-16T06:14:31.044Z,9.20
2019-04-16T06:17:06.332Z,9.20
2019-04-16T06:19:43.847Z,9.00
2019-04-16T06:22:17.470Z,9.00
2019-04-16T06:25:09.454Z,9.10
2019-04-16T06:27:37.715Z,9.10
2019-04-16T06:30:21.761Z,9.20
2019-04-16T06:32:53.059Z,9.30
2019-04-16T06:35:43.464Z,9.30
2019-04-16T06:38:13.876Z,9.20
2019-04-16T06:41:03.040Z,9.40
2019-04-16T06:43:38.924Z,9.50
2019-04-16T06:46:17.609Z,9.60
2019-04-16T06:48:49.666Z,9.60
2019-04-16T06:51:27.117Z,9.60
2019-04-16T06:53:57.483Z,9.60
2019-04-16T06:56:37.424Z,9.80
2019-04-16T06:59:07.692Z,9.90
2019-04-16T07:01:55.060Z,10.00
2019-04-16T07:04:42.798Z,10.20
2019-04-16T07:07:13.158Z,10.40
2019-04-16T07:09:47.231Z,10.50
2019-04-16T07:12:18.557Z,10.60
2019-04-16T07:14:49.107Z,10.70
2019-04-16T07:17:19.059Z,10.70
2019-04-16T07:19:48.730Z,10.70
2019-04-16T07:22:21.196Z,10.70
2019-04-16T07:24:51.592Z,10.80
2019-04-16T07:27:21.596Z,10.90
2019-04-16T07:29:53.350Z,11.00
2019-04-16T07:32:25.143Z,11.00
2019-04-16T07:34:56.550Z,11.10
2019-04-16T07:37:43.950Z,11.20
2019-04-16T07:40:33.991Z,11.30
2019-04-16T07:43:21.287Z,11.30
2019-04-16T07:45:52.612Z,11.20
2019-04-16T07:48:32.690Z,11.30
2019-04-16T07:51:15.941Z,11.30
2019-04-16T07:53:48.074Z,11.40
2019-04-16T07:56:19.496Z,11.50
2019-04-16T07:58:49.145Z,11.60
2019-04-16T08:01:18.914Z,11.80
2019-04-16T08:03:48.984Z,11.70
2019-04-16T08:06:18.694Z,11.70
2019-04-16T08:08:48.552Z,11.80
2019-04-16T08:11:18.330Z,11.80
2019-04-16T08:13:48.079Z,11.90
2019-04-16T08:16:17.775Z,12.10
2019-04-16T08:18:49.022Z,12.30
2019-04-16T08:21:22.315Z,12.30
2019-04-16T08:23:53.100Z,12.40
2019-04-16T08:26:22.874Z,12.50
2019-04-16T08:28:52.526Z,12.60
2019-04-16T08:31:23.883Z,12.60
2019-04-16T08:33:53.608Z,12.70
2019-04-16T08:36:23.399Z,12.70
2019-04-16T08:38:53.072Z,12.80
2019-04-16T08:41:22.763Z,12.90
2019-04-16T08:43:52.579Z,12.90
2019-04-16T08:46:22.377Z,12.90
2019-04-16T08:48:54.313Z,13.00
2019-04-16T08:51:30.202Z,13.00
2019-04-16T08:53:55.320Z,13.00
2019-04-16T08:56:25.118Z,13.20
2019-04-16T08:58:58.594Z,13.40
2019-04-16T09:01:27.944Z,13.40
2019-04-16T09:04:01.216Z,13.50
2019-04-16T09:06:29.240Z,13.60
2019-04-16T09:09:12.929Z,13.70
2019-04-16T09:11:36.163Z,13.80
2019-04-16T09:14:07.877Z,14.00
2019-04-16T09:16:55.325Z,14.10
2019-04-16T09:19:26.358Z,14.10
2019-04-16T09:21:56.212Z,14.10
2019-04-16T09:24:27.597Z,14.30
2019-04-16T09:26:59.033Z,14.40
2019-04-16T09:29:46.098Z,14.40
2019-04-16T09:32:15.523Z,14.40
2019-04-16T09:35:09.616Z,14.40
2019-04-16T09:37:50.646Z,14.50
2019-04-16T09:40:26.157Z,14.60
2019-04-16T09:42:56.304Z,14.80
2019-04-16T09:45:26.376Z,14.80
2019-04-16T09:47:56.125Z,14.90
2019-04-16T09:50:26.100Z,15.00
2019-04-16T09:52:56.428Z,15.00
2019-04-16T09:55:26.151Z,15.10
2019-04-16T09:57:56.338Z,15.30
2019-04-16T10:00:36.627Z,15.20
2019-04-16T10:03:10.908Z,15.20
2019-04-16T10:05:40.581Z,15.40
2019-04-16T10:08:12.762Z,15.50
2019-04-16T10:10:41.887Z,15.60
2019-04-16T10:13:11.642Z,15.60
2019-04-16T10:15:42.332Z,15.50
2019-04-16T10:18:12.346Z,15.70
2019-04-16T10:20:42.341Z,15.80
2019-04-16T10:23:14.043Z,15.90
2019-04-16T10:25:43.886Z,16.00
2019-04-16T10:28:33.946Z,16.10
2019-04-16T10:31:03.451Z,16.30
2019-04-16T10:33:33.407Z,16.40
2019-04-16T10:36:04.937Z,16.40
2019-04-16T10:38:44.171Z,16.50
2019-04-16T10:41:21.198Z,16.60
2019-04-16T10:43:55.259Z,16.50
2019-04-16T10:46:33.361Z,16.70
2019-04-16T10:49:07.449Z,16.80
2019-04-16T10:51:54.795Z,16.90
2019-04-16T10:54:26.346Z,16.90
2019-04-16T10:57:10.136Z,17.00
2019-04-16T10:59:55.926Z,17.10
2019-04-16T11:02:28.831Z,17.20
2019-04-16T11:05:19.148Z,17.20
2019-04-16T11:07:52.391Z,17.30
2019-04-16T11:10:29.479Z,17.50
2019-04-16T11:13:00.168Z,17.50
2019-04-16T11:15:30.257Z,17.50
2019-04-16T11:18:00.149Z,17.60
2019-04-16T11:20:29.940Z,17.60
2019-04-16T11:22:59.659Z,17.70
2019-04-16T11:25:29.870Z,17.70
2019-04-16T11:27:59.706Z,17.80
2019-04-16T11:30:31.268Z,17.90
2019-04-16T11:33:01.199Z,18.00
2019-04-16T11:35:31.633Z,18.00
2019-04-16T11:38:01.656Z,18.20
2019-04-16T11:40:31.440Z,18.10
2019-04-16T11:43:01.306Z,18.10
2019-04-16T11:45:31.288Z,18.10
2019-04-16T11:48:01.184Z,18.20
2019-04-16T11:50:31.014Z,18.20
2019-04-16T11:53:00.801Z,18.10
2019-04-16T11:55:30.612Z,18.20
2019-04-16T11:58:00.386Z,18.20
2019-04-16T12:00:34.696Z,18.20
2019-04-16T12:03:06.221Z,18.30
2019-04-16T12:05:53.486Z,18.40
2019-04-16T12:08:40.247Z,18.40
2019-04-16T12:11:15.916Z,18.40
2019-04-16T12:13:49.799Z,18.30
2019-04-16T12:16:30.204Z,18.30
2019-04-16T12:19:17.772Z,18.40
2019-04-16T12:22:04.190Z,18.50
2019-04-16T12:24:37.003Z,18.50
2019-04-16T12:27:08.344Z,18.50
2019-04-16T12:29:56.108Z,18.40
2019-04-16T12:32:27.489Z,18.30
2019-04-16T12:34:58.999Z,18.40
2019-04-16T12:37:46.501Z,18.50
2019-04-16T12:40:20.045Z,18.70
2019-04-16T12:42:51.230Z,18.70
2019-04-16T12:45:29.161Z,18.90
2019-04-16T12:48:00.705Z,18.90
2019-04-16T12:50:39.628Z,19.00
2019-04-16T12:53:11.241Z,19.00
2019-04-16T13:27:54.584Z,20.00
2019-04-16T13:30:24.469Z,20.00
2019-04-16T13:32:54.493Z,20.10
2019-04-16T13:35:24.512Z,20.10
2019-04-16T13:37:54.458Z,20.20
2019-04-16T13:40:25.104Z,20.40
2019-04-16T13:42:55.124Z,20.80
2019-04-16T13:45:27.729Z,20.80
2019-04-16T13:48:13.925Z,20.80
2019-04-16T13:50:39.892Z,20.90
2019-04-16T13:53:07.890Z,21.00
2019-04-16T13:55:57.754Z,21.10
2019-04-16T13:58:47.134Z,21.20
2019-04-16T14:01:18.666Z,21.20
2019-04-16T14:03:48.775Z,21.30
2019-04-16T14:06:29.896Z,21.30
2019-04-16T14:08:59.686Z,21.30
2019-04-16T14:11:30.922Z,21.30
2019-04-16T14:14:00.746Z,21.40
2019-04-16T14:16:30.735Z,21.60
2019-04-16T14:19:02.580Z,21.60
2019-04-16T14:21:32.653Z,21.70
2019-04-16T14:24:02.617Z,21.50
2019-04-16T14:26:32.576Z,21.50
2019-04-16T14:29:05.835Z,21.50
2019-04-16T14:31:33.833Z,21.40
2019-04-16T14:34:05.286Z,21.50
2019-04-16T14:36:35.189Z,21.50
2019-04-16T14:39:12.669Z,21.40
2019-04-16T14:41:42.584Z,21.30
2019-04-16T14:44:13.973Z,21.30
2019-04-16T14:46:43.761Z,21.30
2019-04-16T14:49:15.222Z,21.40
2019-04-16T14:51:45.002Z,21.50
2019-04-16T14:54:16.406Z,21.50
2019-04-16T14:56:47.837Z,21.50
2019-04-16T14:59:30.252Z,21.70
2019-04-16T15:01:57.028Z,22.10
2019-04-16T15:04:44.893Z,22.00
2019-04-16T15:07:23.583Z,21.80
2019-04-16T15:10:03.874Z,21.60
2019-04-16T15:12:45.458Z,21.40
2019-04-16T15:15:25.569Z,21.20
2019-04-16T15:18:12.715Z,21.10
2019-04-16T15:20:56.025Z,21.00
2019-04-16T15:23:30.184Z,20.80
2019-04-16T15:26:16.507Z,20.70
2019-04-16T15:28:50.720Z,20.60
2019-04-16T15:31:33.061Z,20.70
2019-04-16T15:34:17.068Z,20.70
2019-04-16T15:36:54.986Z,20.60
2019-04-16T15:39:36.364Z,20.50
2019-04-16T15:42:06.848Z,20.40
2019-04-16T15:44:41.146Z,20.30
2019-04-16T15:47:27.563Z,20.30
2019-04-16T15:49:58.909Z,20.30
2019-04-16T15:52:28.589Z,20.30
2019-04-16T15:55:00.079Z,20.30
2019-04-16T15:57:32.554Z,20.20
2019-04-16T16:00:09.423Z,20.20
2019-04-16T16:02:50.337Z,20.10
2019-04-16T16:05:31.308Z,19.90
2019-04-16T16:08:10.124Z,19.70
2019-04-16T16:10:50.320Z,19.70
2019-04-16T16:13:22.836Z,19.70
2019-04-16T16:15:51.979Z,19.60
2019-04-16T16:18:21.971Z,19.70
2019-04-16T16:20:51.860Z,19.60
2019-04-16T16:23:21.992Z,19.60
2019-04-16T16:25:52.012Z,19.60
2019-04-16T16:28:21.819Z,19.60
2019-04-16T16:30:51.837Z,19.50
2019-04-16T16:33:21.672Z,19.50
2019-04-16T16:35:58.745Z,19.50
2019-04-16T16:38:23.344Z,19.40
2019-04-16T16:40:53.337Z,19.40
2019-04-16T16:43:23.138Z,19.30
2019-04-16T16:46:10.887Z,19.30
2019-04-16T16:48:40.817Z,19.20
2019-04-16T16:51:10.761Z,19.10
2019-04-16T16:53:42.330Z,19.00
2019-04-16T16:56:14.033Z,19.00
2019-04-16T16:58:57.780Z,18.90
2019-04-16T17:01:41.232Z,18.80
2019-04-16T17:04:12.582Z,18.80
2019-04-16T17:06:42.531Z,18.80
2019-04-16T17:09:14.366Z,18.70
2019-04-16T17:11:44.137Z,18.70
2019-04-16T17:14:13.999Z,18.60
2019-04-16T17:16:43.883Z,18.60
2019-04-16T17:19:13.677Z,18.20
2019-04-16T17:21:43.534Z,18.00
2019-04-16T17:24:13.290Z,17.60
2019-04-16T17:26:43.134Z,17.50
2019-04-16T17:29:12.937Z,17.30
2019-04-16T17:31:42.915Z,17.10
2019-04-16T17:34:12.727Z,17.00
2019-04-16T17:36:42.702Z,17.00
2019-04-16T17:39:14.315Z,16.90
2019-04-16T17:41:44.068Z,16.80
2019-04-16T17:44:15.596Z,16.70
2019-04-16T17:46:47.166Z,16.70
2019-04-16T17:49:18.821Z,16.70
2019-04-16T17:51:50.225Z,16.70
2019-04-16T17:54:24.444Z,16.60
2019-04-16T17:57:02.930Z,16.50
2019-04-16T17:59:34.476Z,16.50
2019-04-16T18:02:25.124Z,16.50
2019-04-16T18:04:55.614Z,16.50
2019-04-16T18:07:37.474Z,16.40
2019-04-16T18:10:33.767Z,16.40
2019-04-16T18:13:07.453Z,16.40
2019-04-16T18:15:46.666Z,16.30
2019-04-16T18:18:18.651Z,16.20
2019-04-16T18:20:57.398Z,16.20
2019-04-16T18:23:23.632Z,16.20
2019-04-16T18:26:02.026Z,16.10
2019-04-16T18:28:45.990Z,16.00
2019-04-16T18:31:23.500Z,16.00
2019-04-16T18:33:55.339Z,16.00
2019-04-16T18:36:26.974Z,16.00
2019-04-16T18:39:03.327Z,15.90
2019-04-16T18:41:41.086Z,16.00
2019-04-16T18:44:16.898Z,15.90
2019-04-16T18:46:57.994Z,15.90
2019-04-16T18:49:32.386Z,15.80
2019-04-16T18:52:05.339Z,15.80
2019-04-16T18:54:34.324Z,15.80
2019-04-16T18:57:04.070Z,15.80
2019-04-16T18:59:33.888Z,15.70
2019-04-16T19:02:09.795Z,15.70
2019-04-16T19:04:39.838Z,15.70
2019-04-16T19:07:09.864Z,15.70
2019-04-16T19:09:39.828Z,15.60
2019-04-16T19:12:09.778Z,15.70
2019-04-16T19:14:39.595Z,15.60
2019-04-16T19:17:09.714Z,15.60
2019-04-16T19:19:44.373Z,15.60
2019-04-16T19:22:11.377Z,15.60
2019-04-16T19:24:41.165Z,15.60
2019-04-16T19:27:11.078Z,15.50
2019-04-16T19:29:42.855Z,15.50
2019-04-16T19:32:12.569Z,15.50
2019-04-16T19:34:42.380Z,15.50
2019-04-16T19:37:12.380Z,15.50
2019-04-16T19:39:43.795Z,15.50
2019-04-16T19:42:13.823Z,15.50
2019-04-16T19:44:43.675Z,15.50
2019-04-16T19:47:15.075Z,15.50
2019-04-16T19:49:45.065Z,15.40
2019-04-16T19:52:17.343Z,15.40
2019-04-16T19:54:46.635Z,15.40
2019-04-16T19:57:16.577Z,15.40
2019-04-16T19:59:47.276Z,15.40
2019-04-16T20:02:17.380Z,15.30
2019-04-16T20:04:50.544Z,15.30
2019-04-16T20:07:18.794Z,15.30
2019-04-16T20:09:48.762Z,15.30
2019-04-16T20:12:19.719Z,15.30
2019-04-16T20:14:49.552Z,15.30
2019-04-16T20:17:19.443Z,15.30
2019-04-16T20:19:58.899Z,15.20
2019-04-16T20:22:31.151Z,15.10
2019-04-16T20:25:01.209Z,15.10
2019-04-16T20:27:31.314Z,15.10
2019-04-16T20:30:01.759Z,15.00
2019-04-16T20:32:34.314Z,15.00
2019-04-16T20:35:03.787Z,15.00
2019-04-16T20:37:33.734Z,15.00
2019-04-16T20:40:03.985Z,14.90
2019-04-16T20:42:33.808Z,14.80
2019-04-16T20:45:03.953Z,14.80
2019-04-16T20:47:38.530Z,14.80
2019-04-16T20:50:07.840Z,14.80
2019-04-16T20:52:37.794Z,14.70
2019-04-16T20:55:09.375Z,14.70
2019-04-16T20:57:39.377Z,14.60
2019-04-16T21:00:12.217Z,14.60
2019-04-16T21:02:42.032Z,14.60
2019-04-16T21:05:21.998Z,14.50
2019-04-16T21:07:43.867Z,14.50
2019-04-16T21:10:15.339Z,14.40
2019-04-16T21:12:46.155Z,14.40
2019-04-16T21:15:16.160Z,14.40
2019-04-16T21:17:46.165Z,14.40
2019-04-16T21:20:19.339Z,14.30
2019-04-16T21:22:47.787Z,14.30
2019-04-16T21:25:17.787Z,14.30
2019-04-16T21:27:49.274Z,14.30
2019-04-16T21:30:19.352Z,14.30
2019-04-16T21:32:49.535Z,14.20
2019-04-16T21:35:21.208Z,14.20
2019-04-16T21:37:52.666Z,14.20
2019-04-16T21:40:23.354Z,14.20
2019-04-16T21:42:53.927Z,14.20
2019-04-16T21:45:23.858Z,14.10
2019-04-16T21:47:55.136Z,14.10
2019-04-16T21:50:25.356Z,14.10
2019-04-16T21:52:56.567Z,14.00
2019-04-16T21:55:26.611Z,14.00
2019-04-16T21:57:56.443Z,14.00
2019-04-16T22:00:31.605Z,14.00
2019-04-16T22:03:03.488Z,13.90
2019-04-16T22:05:33.532Z,13.90
2019-04-16T22:08:03.863Z,13.90
2019-04-16T22:10:35.589Z,13.90
2019-04-16T22:13:06.126Z,13.90
2019-04-16T22:15:36.135Z,13.80
2019-04-16T22:18:08.823Z,13.80
2019-04-16T22:20:37.645Z,13.80
2019-04-16T22:23:07.749Z,13.80
2019-04-16T22:25:37.639Z,13.80
2019-04-16T22:28:11.380Z,13.70
2019-04-16T22:30:39.495Z,13.70
2019-04-16T22:33:09.338Z,13.70
2019-04-16T22:35:39.421Z,13.70
2019-04-16T22:38:13.243Z,13.70
2019-04-16T22:40:42.729Z,13.60
2019-04-16T22:43:12.429Z,13.60
2019-04-16T22:45:46.619Z,13.60
2019-04-16T22:48:16.540Z,13.50
2019-04-16T22:50:46.478Z,13.40
2019-04-16T22:53:17.354Z,13.40
2019-04-16T22:55:48.211Z,13.30
2019-04-16T22:58:24.540Z,13.30
2019-04-16T23:00:56.560Z,13.20
2019-04-16T23:03:26.514Z,13.10
2019-04-16T23:05:56.639Z,13.10
2019-04-16T23:08:26.576Z,13.10
2019-04-16T23:10:56.683Z,13.10
2019-04-16T23:13:26.548Z,13.10
2019-04-16T23:15:57.075Z,13.10
2019-04-16T23:18:26.928Z,13.10
2019-04-16T23:20:57.290Z,13.00
2019-04-16T23:23:27.117Z,13.00
2019-04-16T23:25:59.694Z,12.90
2019-04-16T23:28:28.650Z,12.90
2019-04-16T23:30:58.770Z,12.90
2019-04-16T23:33:32.605Z,12.90
2019-04-16T23:36:00.399Z,12.90
2019-04-16T23:38:31.717Z,12.90
2019-04-16T23:41:02.017Z,12.90
2019-04-16T23:43:50.552Z,12.90
2019-04-16T23:46:20.477Z,12.90
2019-04-16T23:49:08.033Z,12.80
2019-04-16T23:51:45.624Z,12.90
2019-04-16T23:54:33.714Z,12.90
2019-04-16T23:57:07.687Z,12.90
2019-04-16T23:59:55.866Z,12.90
